createdAt,value
2023-05-10T00:00:19.100Z,25.00
2023-05-10T00:01:18.781Z,25.00
2023-05-10T00:02:18.832Z,25.00
2023-05-10T00:03:18.881Z,0.00
2023-05-10T00:04:18.940Z,0.00
2023-05-10T00:05:18.871Z,0.00
2023-05-10T00:06:18.872Z,0.00
2023-05-10T00:07:18.934Z,0.00
2023-05-10T00:08:18.920Z,10.28
2023-05-10T00:09:18.952Z,24.52
2023-05-10T00:10:19.116Z,25.00
2023-05-10T00:11:20.933Z,26.04
2023-05-10T00:12:19.059Z,23.86
2023-05-10T00:13:19.129Z,16.77
2023-05-10T00:14:18.998Z,14.18
2023-05-10T00:15:18.986Z,2.32
2023-05-10T00:16:19.020Z,0.00
2023-05-10T00:17:18.977Z,18.97
2023-05-10T00:18:18.968Z,26.35
2023-05-10T00:19:18.958Z,26.58
2023-05-10T00:20:19.255Z,27.32
2023-05-10T00:21:18.950Z,25.00
2023-05-10T00:22:18.942Z,27.86
2023-05-10T00:23:18.940Z,28.18
2023-05-10T00:24:18.930Z,25.88
2023-05-10T00:25:18.906Z,28.36
2023-05-10T00:26:18.919Z,28.01
2023-05-10T00:27:18.897Z,28.33
2023-05-10T00:28:18.913Z,27.93
2023-05-10T00:29:18.902Z,25.00
2023-05-10T00:30:19.075Z,27.12
2023-05-10T00:31:18.860Z,26.04
2023-05-10T00:32:18.947Z,29.23
2023-05-10T00:33:18.912Z,25.95
2023-05-10T00:34:18.863Z,26.09
2023-05-10T00:35:18.900Z,27.22
2023-05-10T00:36:18.933Z,28.09
2023-05-10T00:37:18.964Z,29.57
2023-05-10T00:38:19.034Z,28.61
2023-05-10T00:39:19.028Z,29.69
2023-05-10T00:40:19.261Z,30.64
2023-05-10T00:41:19.124Z,30.31
2023-05-10T00:42:19.135Z,27.75
2023-05-10T00:43:19.195Z,29.87
2023-05-10T00:44:19.218Z,27.63
2023-05-10T00:45:19.294Z,30.02
2023-05-10T00:46:19.349Z,28.03
2023-05-10T00:47:19.332Z,26.67
2023-05-10T00:48:19.374Z,27.84
2023-05-10T00:49:19.410Z,27.85
2023-05-10T00:50:19.482Z,27.89
2023-05-10T00:51:19.503Z,30.03
2023-05-10T00:52:19.531Z,26.53
2023-05-10T00:53:19.567Z,27.79
2023-05-10T00:54:19.615Z,27.97
2023-05-10T00:55:20.004Z,25.76
2023-05-10T00:56:20.050Z,27.87
2023-05-10T00:57:20.048Z,28.20
2023-05-10T00:58:20.067Z,28.30
2023-05-10T00:59:20.052Z,28.38
2023-05-10T01:00:20.053Z,29.82
2023-05-10T01:01:20.157Z,29.47
2023-05-10T01:02:20.104Z,28.49
2023-05-10T01:03:20.283Z,29.96
2023-05-10T01:04:20.049Z,28.21
2023-05-10T01:05:20.095Z,29.49
2023-05-10T01:06:20.122Z,27.23
2023-05-10T01:07:20.161Z,27.11
2023-05-10T01:08:20.215Z,27.94
2023-05-10T01:09:20.246Z,29.15
2023-05-10T01:10:20.294Z,28.57
2023-05-10T01:11:20.339Z,31.17
2023-05-10T01:12:20.406Z,31.09
2023-05-10T01:13:20.490Z,29.50
2023-05-10T01:14:20.488Z,29.12
2023-05-10T01:15:20.522Z,29.19
2023-05-10T01:16:20.988Z,26.86
2023-05-10T01:17:21.011Z,26.39
2023-05-10T01:18:20.972Z,29.70
2023-05-10T01:19:20.944Z,28.24
2023-05-10T01:20:20.938Z,28.29
2023-05-10T01:21:20.951Z,30.55
2023-05-10T01:22:20.941Z,30.48
2023-05-10T01:23:20.976Z,28.74
2023-05-10T01:24:20.948Z,32.33
2023-05-10T01:25:20.966Z,28.43
2023-05-10T01:26:21.013Z,30.85
2023-05-10T01:27:21.073Z,28.75
2023-05-10T01:28:21.094Z,29.94
2023-05-10T01:29:21.141Z,31.00
2023-05-10T01:31:20.250Z,31.65
2023-05-10T01:32:21.281Z,30.47
2023-05-10T01:33:21.374Z,29.54
2023-05-10T01:34:21.376Z,31.42
2023-05-10T01:35:21.434Z,29.04
2023-05-10T01:36:21.473Z,31.16
2023-05-10T01:37:21.590Z,30.91
2023-05-10T01:38:21.587Z,31.98
2023-05-10T01:39:21.640Z,33.28
2023-05-10T01:40:21.692Z,34.02
2023-05-10T01:41:21.750Z,31.22
2023-05-10T01:42:21.811Z,30.80
2023-05-10T01:43:21.849Z,31.85
2023-05-10T01:44:21.918Z,30.79
2023-05-10T01:45:21.959Z,30.67
2023-05-10T01:46:22.026Z,30.70
2023-05-10T01:47:22.061Z,34.69
2023-05-10T01:48:22.119Z,31.24
2023-05-10T01:49:22.203Z,29.61
2023-05-10T01:50:22.211Z,31.73
2023-05-10T01:51:22.259Z,29.78
2023-05-10T01:52:22.306Z,31.05
2023-05-10T01:53:22.367Z,34.29
2023-05-10T01:54:22.443Z,32.03
2023-05-10T01:55:22.472Z,33.80
2023-05-10T01:56:22.521Z,32.89
2023-05-10T01:57:22.586Z,32.25
2023-05-10T01:58:22.626Z,34.53
2023-05-10T01:59:22.696Z,33.16
2023-05-10T02:00:22.719Z,32.50
2023-05-10T02:01:22.867Z,32.44
2023-05-10T02:02:22.826Z,30.15
2023-05-10T02:03:22.991Z,31.13
2023-05-10T02:04:22.918Z,31.37
2023-05-10T02:05:23.008Z,32.23
2023-05-10T02:06:23.031Z,33.77
2023-05-10T02:07:23.078Z,32.16
2023-05-10T02:08:23.129Z,32.91
2023-05-10T02:09:23.184Z,33.85
2023-05-10T02:10:23.248Z,32.60
2023-05-10T02:11:23.270Z,30.27
2023-05-10T02:12:23.340Z,30.44
2023-05-10T02:13:23.424Z,33.68
2023-05-10T02:14:23.433Z,32.12
2023-05-10T02:15:23.491Z,32.29
2023-05-10T02:16:23.571Z,33.06
2023-05-10T02:17:23.626Z,33.50
2023-05-10T02:18:23.679Z,33.31
2023-05-10T02:19:23.718Z,32.15
2023-05-10T02:20:23.758Z,33.33
2023-05-10T02:21:23.836Z,31.57
2023-05-10T02:22:24.411Z,32.69
2023-05-10T02:23:23.914Z,32.96
2023-05-10T02:24:23.968Z,30.12
2023-05-10T02:25:24.033Z,33.54
2023-05-10T02:26:24.088Z,33.53
2023-05-10T02:27:24.126Z,33.80
2023-05-10T02:28:24.169Z,32.90
2023-05-10T02:29:24.255Z,32.73
2023-05-10T02:30:24.285Z,34.74
2023-05-10T02:31:24.387Z,34.50
2023-05-10T02:32:24.415Z,32.54
2023-05-10T02:33:24.443Z,33.34
2023-05-10T02:34:24.505Z,33.14
2023-05-10T02:35:24.549Z,33.27
2023-05-10T02:36:24.607Z,33.13
2023-05-10T02:37:24.681Z,33.62
2023-05-10T02:38:24.721Z,34.85
2023-05-10T02:39:25.135Z,32.57
2023-05-10T02:40:26.187Z,32.38
2023-05-10T02:41:25.098Z,32.55
2023-05-10T02:42:25.094Z,33.23
2023-05-10T02:43:25.076Z,33.52
2023-05-10T02:44:25.056Z,34.52
2023-05-10T02:45:25.046Z,36.70
2023-05-10T02:46:25.084Z,32.70
2023-05-10T02:47:25.012Z,31.50
2023-05-10T02:48:24.989Z,32.21
2023-05-10T02:49:24.989Z,32.65
2023-05-10T02:50:24.958Z,31.89
2023-05-10T02:51:24.945Z,34.08
2023-05-10T02:52:24.963Z,36.85
2023-05-10T02:53:24.944Z,34.46
2023-05-10T02:54:24.906Z,32.04
2023-05-10T02:55:24.886Z,35.43
2023-05-10T02:56:24.871Z,34.65
2023-05-10T02:57:24.927Z,33.71
2023-05-10T02:58:24.853Z,33.58
2023-05-10T02:59:24.848Z,35.23
2023-05-10T03:00:24.830Z,32.99
2023-05-10T03:01:24.875Z,32.52
2023-05-10T03:02:24.931Z,35.04
2023-05-10T03:03:24.972Z,33.00
2023-05-10T03:04:25.043Z,33.12
2023-05-10T03:05:25.082Z,34.43
2023-05-10T03:06:25.133Z,34.23
2023-05-10T03:07:25.201Z,35.65
2023-05-10T03:08:25.251Z,32.09
2023-05-10T03:09:25.338Z,33.33
2023-05-10T03:10:25.364Z,31.51
2023-05-10T03:11:25.781Z,35.00
2023-05-10T03:12:25.829Z,35.73
2023-05-10T03:13:25.892Z,34.55
2023-05-10T03:14:25.832Z,36.08
2023-05-10T03:15:26.581Z,34.80
2023-05-10T03:16:25.934Z,32.36
2023-05-10T03:17:25.904Z,34.35
2023-05-10T03:18:25.830Z,33.35
2023-05-10T03:19:25.871Z,35.13
2023-05-10T03:20:25.924Z,33.58
2023-05-10T03:21:25.985Z,32.68
2023-05-10T03:22:26.038Z,33.79
2023-05-10T03:23:26.098Z,32.63
2023-05-10T03:24:26.178Z,33.79
2023-05-10T03:25:26.258Z,32.20
2023-05-10T03:26:26.282Z,31.54
2023-05-10T03:27:26.342Z,33.82
2023-05-10T03:28:26.389Z,31.73
2023-05-10T03:29:26.458Z,33.44
2023-05-10T03:30:26.519Z,35.08
2023-05-10T03:31:26.595Z,33.42
2023-05-10T03:32:26.673Z,33.14
2023-05-10T03:33:26.692Z,33.94
2023-05-10T03:34:26.757Z,34.03
2023-05-10T03:35:26.817Z,33.74
2023-05-10T03:36:26.859Z,33.71
2023-05-10T03:37:26.936Z,33.27
2023-05-10T03:38:29.037Z,34.39
2023-05-10T03:39:26.972Z,34.58
2023-05-10T03:40:26.960Z,34.42
2023-05-10T03:41:26.983Z,34.86
2023-05-10T03:42:26.951Z,34.46
2023-05-10T03:43:26.940Z,36.47
2023-05-10T03:44:26.948Z,33.53
2023-05-10T03:45:26.930Z,36.78
2023-05-10T03:46:26.980Z,33.95
2023-05-10T03:47:27.086Z,34.53
2023-05-10T03:48:26.909Z,33.85
2023-05-10T03:49:26.890Z,36.25
2023-05-10T03:50:26.915Z,37.45
2023-05-10T03:51:26.970Z,32.44
2023-05-10T03:52:27.034Z,33.17
2023-05-10T03:53:27.122Z,34.88
2023-05-10T03:54:27.152Z,37.20
2023-05-10T03:55:27.196Z,33.07
2023-05-10T03:56:27.254Z,34.72
2023-05-10T03:57:27.415Z,35.33
2023-05-10T03:58:27.369Z,35.79
2023-05-10T03:59:27.417Z,34.72
2023-05-10T04:00:27.480Z,35.95
2023-05-10T04:01:27.548Z,33.92
2023-05-10T04:02:27.799Z,35.75
2023-05-10T04:03:27.735Z,33.47
2023-05-10T04:04:27.712Z,31.53
2023-05-10T04:05:27.776Z,35.79
2023-05-10T04:06:27.884Z,33.78
2023-05-10T04:07:27.897Z,33.75
2023-05-10T04:08:27.949Z,30.27
2023-05-10T04:09:28.013Z,33.75
2023-05-10T04:10:28.072Z,33.40
2023-05-10T04:11:28.141Z,36.03
2023-05-10T04:12:28.203Z,33.55
2023-05-10T04:13:28.354Z,35.88
2023-05-10T04:14:28.335Z,34.74
2023-05-10T04:15:28.386Z,34.83
2023-05-10T04:16:28.518Z,34.49
2023-05-10T04:17:28.534Z,33.13
2023-05-10T04:18:28.582Z,33.11
2023-05-10T04:19:28.645Z,34.61
2023-05-10T04:20:28.714Z,35.05
2023-05-10T04:21:28.781Z,36.45
2023-05-10T04:22:28.883Z,34.82
2023-05-10T04:23:28.889Z,33.78
2023-05-10T04:24:28.945Z,33.68
2023-05-10T04:25:29.013Z,34.25
2023-05-10T04:26:29.076Z,31.32
2023-05-10T04:27:29.132Z,35.67
2023-05-10T04:28:29.209Z,34.23
2023-05-10T04:29:29.284Z,29.88
2023-05-10T04:30:29.316Z,34.00
2023-05-10T04:31:29.405Z,32.28
2023-05-10T04:32:29.506Z,33.27
2023-05-10T04:33:29.958Z,33.58
2023-05-10T04:34:29.890Z,33.45
2023-05-10T04:35:29.878Z,34.63
2023-05-10T04:36:29.896Z,33.05
2023-05-10T04:37:29.881Z,32.23
2023-05-10T04:38:29.884Z,33.23
2023-05-10T04:39:29.888Z,33.36
2023-05-10T04:40:29.905Z,33.50
2023-05-10T04:41:29.954Z,34.77
2023-05-10T04:42:30.011Z,34.99
2023-05-10T04:43:30.069Z,33.30
2023-05-10T04:44:30.163Z,33.83
2023-05-10T04:45:30.268Z,32.48
2023-05-10T04:46:30.373Z,34.77
2023-05-10T04:47:30.399Z,32.30
2023-05-10T04:48:30.391Z,33.68
2023-05-10T04:49:30.519Z,34.91
2023-05-10T04:50:30.889Z,34.01
2023-05-10T04:51:30.914Z,35.85
2023-05-10T04:52:30.891Z,33.41
2023-05-10T04:53:30.909Z,35.13
2023-05-10T04:54:30.944Z,34.15
2023-05-10T04:55:30.917Z,32.23
2023-05-10T04:56:30.892Z,34.16
2023-05-10T04:57:30.967Z,33.18
2023-05-10T04:58:31.045Z,34.66
2023-05-10T04:59:31.092Z,32.83
2023-05-10T05:00:31.154Z,34.82
2023-05-10T05:01:31.268Z,33.70
2023-05-10T05:02:31.377Z,36.53
2023-05-10T05:03:31.403Z,33.13
2023-05-10T05:04:31.412Z,32.86
2023-05-10T05:05:31.471Z,28.75
2023-05-10T05:06:31.539Z,34.26
2023-05-10T05:07:31.584Z,33.98
2023-05-10T05:08:31.651Z,35.42
2023-05-10T05:09:31.706Z,33.00
2023-05-10T05:10:31.758Z,32.55
2023-05-10T05:11:31.806Z,33.55
2023-05-10T05:12:31.860Z,33.00
2023-05-10T05:13:31.936Z,31.36
2023-05-10T05:14:31.967Z,35.13
2023-05-10T05:15:32.019Z,34.65
2023-05-10T05:16:32.118Z,32.51
2023-05-10T05:17:33.183Z,34.45
2023-05-10T05:18:32.166Z,33.72
2023-05-10T05:19:32.268Z,35.70
2023-05-10T05:20:32.756Z,36.17
2023-05-10T05:21:32.316Z,33.95
2023-05-10T05:22:32.373Z,33.22
2023-05-10T05:23:32.433Z,34.73
2023-05-10T05:24:32.484Z,33.02
2023-05-10T05:25:32.544Z,34.53
2023-05-10T05:26:32.607Z,34.86
2023-05-10T05:27:32.663Z,33.84
2023-05-10T05:28:32.733Z,34.27
2023-05-10T05:29:32.796Z,35.38
2023-05-10T05:30:32.844Z,34.55
2023-05-10T05:31:32.971Z,36.42
2023-05-10T05:32:32.972Z,33.96
2023-05-10T05:33:33.042Z,34.57
2023-05-10T05:34:33.073Z,33.86
2023-05-10T05:35:33.139Z,32.09
2023-05-10T05:36:33.192Z,34.71
2023-05-10T05:37:33.240Z,34.56
2023-05-10T05:38:33.298Z,35.37
2023-05-10T05:39:33.363Z,36.55
2023-05-10T05:40:32.425Z,34.65
2023-05-10T05:41:33.485Z,36.08
2023-05-10T05:42:33.558Z,33.89
2023-05-10T05:43:35.524Z,35.89
2023-05-10T05:44:33.764Z,36.04
2023-05-10T05:45:34.646Z,36.00
2023-05-10T05:46:33.592Z,36.52
2023-05-10T05:47:33.610Z,36.64
2023-05-10T05:48:33.599Z,36.11
2023-05-10T05:49:33.794Z,34.06
2023-05-10T05:50:33.773Z,35.85
2023-05-10T05:51:33.629Z,36.59
2023-05-10T05:52:33.696Z,35.56
2023-05-10T05:53:33.750Z,35.55
2023-05-10T05:54:34.277Z,35.03
2023-05-10T05:55:33.892Z,39.17
2023-05-10T05:56:33.998Z,34.58
2023-05-10T05:57:33.958Z,34.62
2023-05-10T05:58:34.286Z,35.76
2023-05-10T05:59:34.283Z,33.12
2023-05-10T06:00:34.124Z,34.65
2023-05-10T06:01:34.176Z,36.25
2023-05-10T06:02:34.439Z,36.13
2023-05-10T06:03:34.385Z,34.22
2023-05-10T06:04:38.187Z,34.39
2023-05-10T06:05:35.311Z,34.59
2023-05-10T06:06:35.093Z,34.99
2023-05-10T06:07:35.145Z,35.70
2023-05-10T06:08:34.319Z,35.63
2023-05-10T06:09:34.298Z,35.78
2023-05-10T06:10:34.284Z,37.98
2023-05-10T06:11:34.272Z,35.58
2023-05-10T06:12:34.285Z,37.12
2023-05-10T06:13:34.405Z,34.42
2023-05-10T06:14:35.338Z,34.09
2023-05-10T06:15:34.396Z,36.96
2023-05-10T06:16:34.534Z,34.95
2023-05-10T06:17:34.576Z,35.90
2023-05-10T06:18:34.597Z,36.09
2023-05-10T06:19:34.623Z,35.23
2023-05-10T06:20:34.704Z,36.60
2023-05-10T06:21:34.722Z,37.04
2023-05-10T06:22:34.763Z,35.50
2023-05-10T06:23:34.800Z,35.12
2023-05-10T06:24:35.281Z,35.14
2023-05-10T06:25:34.861Z,35.67
2023-05-10T06:26:34.952Z,35.82
2023-05-10T06:27:34.966Z,36.39
2023-05-10T06:28:35.024Z,35.16
2023-05-10T06:29:35.295Z,35.76
2023-05-10T06:30:35.145Z,35.45
2023-05-10T06:31:35.300Z,37.43
2023-05-10T06:32:35.273Z,36.35
2023-05-10T06:33:35.299Z,34.99
2023-05-10T06:34:35.795Z,37.97
2023-05-10T06:35:35.431Z,37.03
2023-05-10T06:36:35.520Z,37.82
2023-05-10T06:37:35.555Z,38.22
2023-05-10T06:38:35.788Z,39.37
2023-05-10T06:39:35.669Z,37.72
2023-05-10T06:40:35.724Z,39.54
2023-05-10T06:41:35.781Z,41.00
2023-05-10T06:42:35.837Z,39.99
2023-05-10T06:43:35.898Z,39.54
2023-05-10T06:44:36.291Z,43.97
2023-05-10T06:45:36.025Z,41.18
2023-05-10T06:46:36.127Z,40.01
2023-05-10T06:47:38.811Z,42.87
2023-05-10T06:48:36.136Z,43.02
2023-05-10T06:49:36.289Z,43.17
2023-05-10T06:50:36.294Z,45.09
2023-05-10T06:51:36.102Z,46.78
2023-05-10T06:52:36.250Z,52.35
2023-05-10T06:53:36.085Z,54.91
2023-05-10T06:54:36.315Z,56.89
2023-05-10T06:55:43.469Z,59.06
2023-05-10T06:56:36.082Z,59.42
2023-05-10T06:57:36.089Z,60.06
2023-05-10T06:58:36.292Z,57.74
2023-05-10T06:59:36.094Z,55.81
2023-05-10T07:00:36.073Z,57.90
2023-05-10T07:01:36.087Z,56.20
2023-05-10T07:02:36.100Z,58.13
2023-05-10T07:03:36.010Z,54.99
2023-05-10T07:04:36.423Z,54.49
2023-05-10T07:05:36.267Z,54.16
2023-05-10T07:06:35.980Z,57.70
2023-05-10T07:07:35.980Z,57.14
2023-05-10T07:08:36.006Z,57.73
2023-05-10T07:09:35.974Z,60.38
2023-05-10T07:10:35.976Z,61.81
2023-05-10T07:11:35.983Z,61.26
2023-05-10T07:12:36.522Z,62.13
2023-05-10T07:13:36.014Z,64.59
2023-05-10T07:14:35.980Z,66.82
2023-05-10T07:15:35.978Z,65.69
2023-05-10T07:16:36.396Z,64.77
2023-05-10T07:17:36.067Z,63.17
2023-05-10T07:18:35.944Z,64.93
2023-05-10T07:19:35.873Z,66.12
2023-05-10T07:20:35.978Z,67.52
2023-05-10T07:21:35.993Z,72.34
2023-05-10T07:22:35.972Z,70.78
2023-05-10T07:23:35.995Z,70.65
2023-05-10T07:24:36.032Z,69.94
2023-05-10T07:25:36.057Z,73.22
2023-05-10T07:26:36.303Z,69.86
2023-05-10T07:27:36.133Z,73.04
2023-05-10T07:28:36.302Z,75.24
2023-05-10T07:29:36.216Z,74.68
2023-05-10T07:30:36.302Z,75.27
2023-05-10T07:31:36.337Z,73.01
2023-05-10T07:32:36.854Z,74.94
2023-05-10T07:33:36.418Z,79.92
2023-05-10T07:34:36.806Z,81.75
2023-05-10T07:35:36.483Z,83.52
2023-05-10T07:36:36.529Z,85.66
2023-05-10T07:37:36.549Z,89.04
2023-05-10T07:38:37.548Z,90.68
2023-05-10T07:39:36.836Z,98.07
2023-05-10T07:40:36.692Z,103.03
2023-05-10T07:41:36.556Z,107.78
2023-05-10T07:42:36.545Z,104.23
2023-05-10T07:43:36.550Z,102.22
2023-05-10T07:44:37.799Z,111.65
2023-05-10T07:45:38.652Z,121.25
2023-05-10T07:46:36.527Z,128.22
2023-05-10T07:47:36.576Z,131.14
2023-05-10T07:48:36.522Z,130.18
2023-05-10T07:49:36.834Z,137.58
2023-05-10T07:50:36.513Z,138.76
2023-05-10T07:51:36.491Z,140.81
2023-05-10T07:52:36.552Z,143.27
2023-05-10T07:53:36.481Z,151.04
2023-05-10T07:54:36.818Z,154.67
2023-05-10T07:55:36.436Z,156.18
2023-05-10T07:56:36.465Z,163.26
2023-05-10T07:57:36.444Z,167.50
2023-05-10T07:58:36.444Z,170.59
2023-05-10T07:59:36.844Z,174.06
2023-05-10T08:00:36.411Z,181.05
2023-05-10T08:01:36.808Z,185.17
2023-05-10T08:02:36.592Z,192.60
2023-05-10T08:03:36.459Z,191.17
2023-05-10T08:04:36.496Z,196.83
2023-05-10T08:05:36.390Z,200.27
2023-05-10T08:06:37.030Z,208.65
2023-05-10T08:07:36.356Z,207.99
2023-05-10T08:08:36.343Z,211.87
2023-05-10T08:09:36.327Z,221.44
2023-05-10T08:10:36.817Z,226.65
2023-05-10T08:11:36.318Z,224.37
2023-05-10T08:12:36.365Z,230.29
2023-05-10T08:13:36.308Z,227.32
2023-05-10T08:14:36.289Z,229.51
2023-05-10T08:15:36.345Z,240.11
2023-05-10T08:16:36.291Z,241.99
2023-05-10T08:17:36.289Z,246.40
2023-05-10T08:18:36.426Z,249.06
2023-05-10T08:19:36.258Z,249.79
2023-05-10T08:20:36.249Z,249.57
2023-05-10T08:21:36.246Z,249.34
2023-05-10T08:22:36.235Z,248.47
2023-05-10T08:23:36.273Z,248.69
2023-05-10T08:24:36.331Z,249.05
2023-05-10T08:25:36.992Z,249.48
2023-05-10T08:26:36.461Z,250.00
2023-05-10T08:27:36.496Z,246.34
2023-05-10T08:28:36.648Z,250.02
2023-05-10T08:29:48.869Z,248.00
2023-05-10T08:30:36.613Z,248.40
2023-05-10T08:31:36.702Z,249.75
2023-05-10T08:32:36.669Z,251.35
2023-05-10T08:33:36.594Z,254.28
2023-05-10T08:34:36.586Z,260.12
2023-05-10T08:35:37.866Z,250.00
2023-05-10T08:36:36.590Z,244.45
2023-05-10T08:37:36.568Z,247.60
2023-05-10T08:38:36.559Z,246.68
2023-05-10T08:39:36.873Z,244.66
2023-05-10T08:40:35.649Z,247.20
2023-05-10T08:41:37.116Z,247.70
2023-05-10T08:42:44.157Z,242.75
2023-05-10T08:43:37.079Z,243.10
2023-05-10T08:44:37.029Z,244.30
2023-05-10T08:45:37.847Z,244.85
2023-05-10T08:46:36.717Z,248.10
2023-05-10T08:47:36.711Z,246.54
2023-05-10T08:48:36.681Z,248.06
2023-05-10T08:49:36.661Z,249.62
2023-05-10T08:50:36.828Z,245.15
2023-05-10T08:51:36.734Z,245.24
2023-05-10T08:52:36.656Z,241.90
2023-05-10T08:53:36.682Z,239.28
2023-05-10T08:54:36.844Z,237.65
2023-05-10T08:55:36.786Z,236.87
2023-05-10T08:56:36.837Z,235.08
2023-05-10T08:57:36.884Z,230.64
2023-05-10T08:58:53.576Z,233.09
2023-05-10T08:59:36.938Z,233.39
2023-05-10T09:00:36.988Z,233.75
2023-05-10T09:01:36.928Z,233.68
2023-05-10T09:02:37.009Z,230.13
2023-05-10T09:03:36.935Z,230.74
2023-05-10T09:04:37.429Z,228.60
2023-05-10T09:05:36.903Z,229.29
2023-05-10T09:06:36.878Z,227.51
2023-05-10T09:07:36.881Z,225.44
2023-05-10T09:08:36.860Z,224.77
2023-05-10T09:09:37.340Z,224.06
2023-05-10T09:10:36.858Z,222.63
2023-05-10T09:11:36.848Z,223.93
2023-05-10T09:12:36.833Z,222.52
2023-05-10T09:13:36.824Z,219.90
2023-05-10T09:14:37.453Z,220.00
2023-05-10T09:15:36.847Z,217.73
2023-05-10T09:16:36.882Z,220.26
2023-05-10T09:17:36.842Z,218.30
2023-05-10T09:18:36.840Z,214.88
2023-05-10T09:19:36.886Z,217.29
2023-05-10T09:20:37.341Z,215.57
2023-05-10T09:21:37.060Z,214.13
2023-05-10T09:22:37.006Z,211.49
2023-05-10T09:23:37.063Z,213.13
2023-05-10T09:24:37.077Z,210.93
2023-05-10T09:25:37.352Z,213.76
2023-05-10T09:26:37.173Z,211.08
2023-05-10T09:27:37.213Z,210.34
2023-05-10T09:28:37.249Z,208.81
2023-05-10T09:29:37.348Z,209.60
2023-05-10T09:30:37.395Z,209.55
2023-05-10T09:31:38.359Z,206.43
2023-05-10T09:32:37.454Z,207.54
2023-05-10T09:33:37.441Z,209.23
2023-05-10T09:34:37.847Z,205.90
2023-05-10T09:35:41.051Z,207.84
2023-05-10T09:36:37.551Z,207.96
2023-05-10T09:37:37.495Z,206.43
2023-05-10T09:38:38.064Z,206.11
2023-05-10T09:39:37.500Z,204.65
2023-05-10T09:40:37.474Z,204.04
2023-05-10T09:41:37.474Z,202.38
2023-05-10T09:42:37.470Z,200.43
2023-05-10T09:43:38.067Z,201.25
2023-05-10T09:44:37.452Z,199.70
2023-05-10T09:45:39.103Z,201.40
2023-05-10T09:46:37.586Z,202.34
2023-05-10T09:47:38.500Z,202.46
2023-05-10T09:48:37.460Z,202.02
2023-05-10T09:49:38.068Z,201.23
2023-05-10T09:50:37.408Z,199.98
2023-05-10T09:51:37.407Z,198.28
2023-05-10T09:52:37.386Z,197.18
2023-05-10T09:53:38.094Z,197.57
2023-05-10T09:54:37.440Z,197.23
2023-05-10T09:55:37.464Z,195.66
2023-05-10T09:56:37.986Z,197.21
2023-05-10T09:57:37.571Z,201.84
2023-05-10T09:58:37.611Z,201.79
2023-05-10T09:59:37.672Z,202.61
2023-05-10T10:00:37.901Z,204.02
2023-05-10T10:01:37.796Z,207.16
2023-05-10T10:02:37.794Z,205.34
2023-05-10T10:03:37.827Z,208.26
2023-05-10T10:04:37.961Z,210.10
2023-05-10T10:05:38.359Z,208.98
2023-05-10T10:06:38.036Z,211.85
2023-05-10T10:07:38.073Z,211.68
2023-05-10T10:08:38.207Z,210.52
2023-05-10T10:09:38.199Z,212.42
2023-05-10T10:10:38.382Z,212.13
2023-05-10T10:11:38.333Z,210.18
2023-05-10T10:12:38.386Z,211.07
2023-05-10T10:13:38.453Z,212.15
2023-05-10T10:14:38.504Z,208.27
2023-05-10T10:15:39.207Z,207.41
2023-05-10T10:16:45.824Z,204.57
2023-05-10T10:17:38.648Z,204.87
2023-05-10T10:18:39.178Z,204.96
2023-05-10T10:19:38.722Z,203.82
2023-05-10T10:20:39.177Z,200.72
2023-05-10T10:21:38.613Z,198.61
2023-05-10T10:22:38.629Z,197.55
2023-05-10T10:23:38.592Z,195.52
2023-05-10T10:24:38.582Z,197.48
2023-05-10T10:25:39.109Z,195.87
2023-05-10T10:26:38.568Z,193.58
2023-05-10T10:27:38.570Z,194.06
2023-05-10T10:28:38.563Z,192.08
2023-05-10T10:29:38.574Z,194.16
2023-05-10T10:30:38.900Z,190.16
2023-05-10T10:31:38.537Z,195.26
2023-05-10T10:32:38.561Z,196.83
2023-05-10T10:33:38.526Z,197.62
2023-05-10T10:34:38.553Z,197.51
2023-05-10T10:35:38.882Z,199.37
2023-05-10T10:36:38.557Z,202.08
2023-05-10T10:37:38.578Z,202.68
2023-05-10T10:38:38.641Z,203.91
2023-05-10T10:39:38.048Z,205.15
2023-05-10T10:40:38.631Z,208.07
2023-05-10T10:41:39.114Z,209.63
2023-05-10T10:42:38.614Z,213.51
2023-05-10T10:43:38.615Z,214.03
2023-05-10T10:44:38.603Z,215.16
2023-05-10T10:45:39.725Z,214.04
2023-05-10T10:46:38.652Z,221.35
2023-05-10T10:47:38.652Z,221.52
2023-05-10T10:48:38.593Z,222.40
2023-05-10T10:49:38.575Z,225.62
2023-05-10T10:50:38.565Z,225.35
2023-05-10T10:51:38.883Z,227.74
2023-05-10T10:52:38.571Z,228.70
2023-05-10T10:53:38.554Z,231.42
2023-05-10T10:54:39.123Z,232.72
2023-05-10T10:55:38.520Z,236.41
2023-05-10T10:56:38.533Z,234.29
2023-05-10T10:57:38.884Z,240.94
2023-05-10T10:58:38.498Z,239.77
2023-05-10T10:59:38.503Z,242.17
2023-05-10T11:00:39.520Z,244.07
2023-05-10T11:01:38.655Z,244.80
2023-05-10T11:02:38.482Z,247.41
2023-05-10T11:03:38.469Z,247.54
2023-05-10T11:04:38.922Z,248.84
2023-05-10T11:05:38.463Z,249.94
2023-05-10T11:06:38.442Z,248.54
2023-05-10T11:07:38.430Z,250.00
2023-05-10T11:08:38.478Z,248.32
2023-05-10T11:09:38.488Z,248.38
2023-05-10T11:10:38.415Z,247.21
2023-05-10T11:11:38.895Z,250.00
2023-05-10T11:12:38.415Z,248.41
2023-05-10T11:13:38.402Z,245.66
2023-05-10T11:14:38.400Z,244.78
2023-05-10T11:15:38.382Z,241.71
2023-05-10T11:16:38.921Z,240.27
2023-05-10T11:17:38.408Z,237.23
2023-05-10T11:18:38.412Z,233.94
2023-05-10T11:19:38.383Z,233.17
2023-05-10T11:20:38.368Z,236.20
2023-05-10T11:21:38.359Z,235.00
2023-05-10T11:22:38.348Z,235.37
2023-05-10T11:23:38.337Z,235.47
2023-05-10T11:24:38.431Z,237.37
2023-05-10T11:25:38.317Z,233.08
2023-05-10T11:26:38.371Z,234.30
2023-05-10T11:27:38.296Z,234.07
2023-05-10T11:28:38.284Z,235.51
2023-05-10T11:29:38.279Z,234.29
2023-05-10T11:30:38.290Z,233.02
2023-05-10T11:31:38.389Z,236.18
2023-05-10T11:32:38.266Z,233.42
2023-05-10T11:33:38.254Z,232.20
2023-05-10T11:34:38.256Z,234.09
2023-05-10T11:35:38.270Z,235.47
2023-05-10T11:36:38.235Z,233.58
2023-05-10T11:37:38.228Z,233.18
2023-05-10T11:38:38.221Z,233.42
2023-05-10T11:39:38.210Z,232.82
2023-05-10T11:40:38.255Z,234.66
2023-05-10T11:41:38.225Z,234.03
2023-05-10T11:42:38.391Z,233.23
2023-05-10T11:43:38.242Z,234.61
2023-05-10T11:44:38.247Z,234.45
2023-05-10T11:45:38.269Z,233.30
2023-05-10T11:46:38.310Z,233.21
2023-05-10T11:47:38.387Z,232.82
2023-05-10T11:48:38.309Z,234.32
2023-05-10T11:49:38.324Z,235.57
2023-05-10T11:50:38.333Z,232.13
2023-05-10T11:51:38.354Z,233.15
2023-05-10T11:52:38.350Z,233.22
2023-05-10T11:53:38.357Z,235.58
2023-05-10T11:54:38.363Z,232.90
2023-05-10T11:55:38.377Z,233.31
2023-05-10T11:56:38.414Z,233.00
2023-05-10T11:57:38.389Z,232.00
2023-05-10T11:58:38.897Z,233.23
2023-05-10T11:59:38.412Z,229.31
2023-05-10T12:00:38.434Z,227.25
2023-05-10T12:01:38.443Z,229.98
2023-05-10T12:02:38.560Z,230.84
2023-05-10T12:03:38.618Z,232.12
2023-05-10T12:04:38.533Z,228.72
2023-05-10T12:05:38.490Z,228.85
2023-05-10T12:06:38.518Z,224.24
2023-05-10T12:07:38.525Z,225.05
2023-05-10T12:08:38.545Z,224.69
2023-05-10T12:09:43.773Z,223.54
2023-05-10T12:10:38.561Z,223.84
2023-05-10T12:11:39.098Z,224.76
2023-05-10T12:12:38.639Z,223.85
2023-05-10T12:13:38.624Z,224.08
2023-05-10T12:14:38.627Z,224.82
2023-05-10T12:15:38.647Z,224.44
2023-05-10T12:16:38.712Z,226.63
2023-05-10T12:17:39.926Z,224.20
2023-05-10T12:18:38.721Z,228.40
2023-05-10T12:19:38.684Z,226.92
2023-05-10T12:20:38.669Z,223.37
2023-05-10T12:21:38.665Z,221.88
2023-05-10T12:22:38.665Z,221.67
2023-05-10T12:23:38.654Z,220.77
2023-05-10T12:24:38.657Z,219.80
2023-05-10T12:25:38.633Z,220.78
2023-05-10T12:26:38.636Z,218.60
2023-05-10T12:27:38.616Z,219.34
2023-05-10T12:28:38.645Z,219.20
2023-05-10T12:29:39.005Z,218.83
2023-05-10T12:30:38.597Z,220.43
2023-05-10T12:31:38.603Z,217.19
2023-05-10T12:32:38.601Z,216.76
2023-05-10T12:33:38.582Z,215.44
2023-05-10T12:34:38.583Z,215.43
2023-05-10T12:35:39.036Z,214.17
2023-05-10T12:36:38.626Z,214.02
2023-05-10T12:37:38.669Z,212.96
2023-05-10T12:38:38.706Z,213.77
2023-05-10T12:39:38.765Z,212.69
2023-05-10T12:40:38.849Z,210.54
2023-05-10T12:41:40.065Z,211.06
2023-05-10T12:42:38.933Z,216.12
2023-05-10T12:43:38.913Z,211.31
2023-05-10T12:44:38.887Z,210.63